createdAt,value
2019-03-19T00:00:23.937Z,122.17
2019-03-19T00:02:51.418Z,117.47
2019-03-19T00:05:18.905Z,117.87
2019-03-19T00:07:46.310Z,112.43
2019-03-19T00:10:13.875Z,100.77
2019-03-19T00:12:41.327Z,107.03
2019-03-19T00:15:09.639Z,95.37
2019-03-19T00:17:37.691Z,99.87
2019-03-19T00:20:06.896Z,93.50
2019-03-19T00:22:34.374Z,92.83
2019-03-19T00:25:01.845Z,95.37
2019-03-19T00:27:29.860Z,100.10
2019-03-19T00:29:57.358Z,90.50
2019-03-19T00:32:24.874Z,90.90
2019-03-19T00:34:52.564Z,88.10
2019-03-19T00:37:20.046Z,78.30
2019-03-19T00:39:47.901Z,75.90
2019-03-19T00:42:15.377Z,69.47
2019-03-19T00:44:43.577Z,63.77
2019-03-19T00:47:11.059Z,60.50
2019-03-19T00:49:39.673Z,65.20
2019-03-19T00:52:08.633Z,57.83
2019-03-19T00:54:36.206Z,59.60
2019-03-19T00:57:03.681Z,59.97
2019-03-19T00:59:31.238Z,55.00
2019-03-19T01:01:59.186Z,49.00
2019-03-19T01:04:28.301Z,48.67
2019-03-19T01:06:56.898Z,49.40
2019-03-19T01:09:25.511Z,54.10
2019-03-19T01:11:53.035Z,47.40
2019-03-19T01:14:20.558Z,51.70
2019-03-19T01:16:49.125Z,40.67
2019-03-19T01:19:18.199Z,46.93
2019-03-19T01:21:45.670Z,40.47
2019-03-19T01:24:14.374Z,37.70
2019-03-19T01:26:41.854Z,41.67
2019-03-19T01:29:10.709Z,42.13
2019-03-19T01:31:38.226Z,49.97
2019-03-19T01:34:05.704Z,44.13
2019-03-19T01:36:33.165Z,46.57
2019-03-19T01:39:00.650Z,40.27
2019-03-19T01:41:28.483Z,40.57
2019-03-19T01:43:55.983Z,39.73
2019-03-19T01:46:23.456Z,39.90
2019-03-19T01:48:51.011Z,45.00
2019-03-19T01:51:18.526Z,41.27
2019-03-19T01:53:46.041Z,43.30
2019-03-19T01:56:13.567Z,46.37
2019-03-19T01:58:41.042Z,44.23
2019-03-19T02:01:08.502Z,43.27
2019-03-19T02:03:35.895Z,47.13
2019-03-19T02:06:03.355Z,53.30
2019-03-19T02:08:30.860Z,50.53
2019-03-19T02:10:58.318Z,48.30
2019-03-19T02:13:25.866Z,52.50
2019-03-19T02:15:54.929Z,51.60
2019-03-19T02:18:22.438Z,51.00
2019-03-19T02:20:49.936Z,51.63
2019-03-19T02:23:17.424Z,50.60
2019-03-19T02:25:44.986Z,49.17
2019-03-19T02:28:12.427Z,48.23
2019-03-19T02:30:39.985Z,52.70
2019-03-19T02:33:07.485Z,45.70
2019-03-19T02:35:35.035Z,47.27
2019-03-19T02:38:02.516Z,47.90
2019-03-19T02:40:29.956Z,52.87
2019-03-19T02:42:57.461Z,58.43
2019-03-19T02:45:24.956Z,46.67
2019-03-19T02:47:52.430Z,54.47
2019-03-19T02:50:19.896Z,57.07
2019-03-19T02:52:47.395Z,51.73
2019-03-19T02:55:14.903Z,52.90
2019-03-19T02:57:42.302Z,51.57
2019-03-19T03:00:11.075Z,53.03
2019-03-19T03:02:38.508Z,52.80
2019-03-19T03:05:07.502Z,55.03
2019-03-19T03:07:35.065Z,60.07
2019-03-19T03:10:02.570Z,56.63
2019-03-19T03:12:30.094Z,58.53
2019-03-19T03:14:57.586Z,60.60
2019-03-19T03:17:25.077Z,62.53
2019-03-19T03:19:52.601Z,62.13
2019-03-19T03:22:20.066Z,62.43
2019-03-19T03:24:47.589Z,59.93
2019-03-19T03:27:14.914Z,66.23
2019-03-19T03:29:42.363Z,66.27
2019-03-19T03:32:09.867Z,63.57
2019-03-19T03:34:37.430Z,67.10
2019-03-19T03:37:06.574Z,65.40
2019-03-19T03:39:33.963Z,57.03
2019-03-19T03:42:01.418Z,57.67
2019-03-19T03:44:28.943Z,55.60
2019-03-19T03:46:56.294Z,52.57
2019-03-19T03:49:23.834Z,52.77
2019-03-19T03:51:51.348Z,56.83
2019-03-19T03:54:18.863Z,57.23
2019-03-19T03:56:56.555Z,55.77
2019-03-19T03:59:15.589Z,55.80
2019-03-19T04:01:43.107Z,52.37
2019-03-19T04:04:13.767Z,49.67
2019-03-19T04:06:41.262Z,48.70
2019-03-19T04:09:09.365Z,47.20
2019-03-19T04:11:38.231Z,49.57
2019-03-19T04:14:05.660Z,47.00
2019-03-19T04:16:33.263Z,53.87
2019-03-19T04:19:00.725Z,52.27
2019-03-19T04:21:28.162Z,57.07
2019-03-19T04:23:55.635Z,70.73
2019-03-19T04:26:23.145Z,77.80
2019-03-19T04:28:51.972Z,77.60
2019-03-19T04:31:19.398Z,71.43
2019-03-19T04:33:46.788Z,72.30
2019-03-19T04:36:14.199Z,59.77
2019-03-19T04:38:41.598Z,74.13
2019-03-19T04:41:09.482Z,80.97
2019-03-19T04:43:36.837Z,75.13
2019-03-19T04:46:04.185Z,72.23
2019-03-19T04:48:31.521Z,77.70
2019-03-19T04:50:58.949Z,63.57
2019-03-19T04:53:26.430Z,59.17
2019-03-19T04:55:53.808Z,57.83
2019-03-19T04:58:21.123Z,68.30
2019-03-19T05:00:49.763Z,74.53
2019-03-19T05:03:17.206Z,88.87
2019-03-19T05:05:44.706Z,92.27
2019-03-19T05:08:12.216Z,89.90
2019-03-19T05:10:40.038Z,92.50
2019-03-19T05:13:07.847Z,80.63
2019-03-19T05:15:35.156Z,73.37
2019-03-19T05:18:02.530Z,64.87
2019-03-19T05:20:29.847Z,74.67
2019-03-19T05:22:57.282Z,75.87
2019-03-19T05:25:24.655Z,85.83
2019-03-19T05:27:51.953Z,66.17
2019-03-19T05:30:19.854Z,67.40
2019-03-19T05:32:47.364Z,61.57
2019-03-19T05:35:14.892Z,68.57
2019-03-19T05:37:42.380Z,57.33
2019-03-19T05:40:20.230Z,63.30
2019-03-19T05:42:44.924Z,70.27
2019-03-19T05:45:18.343Z,69.30
2019-03-19T05:47:45.732Z,70.27
2019-03-19T05:50:14.735Z,74.23
2019-03-19T05:52:42.305Z,73.93
2019-03-19T05:55:10.158Z,72.90
2019-03-19T05:57:48.467Z,79.60
2019-03-19T06:00:08.220Z,79.33
2019-03-19T06:02:35.701Z,73.67
2019-03-19T06:05:03.259Z,62.57
2019-03-19T06:07:30.770Z,60.27
2019-03-19T06:09:58.112Z,53.30
2019-03-19T06:12:25.464Z,47.60
2019-03-19T06:14:52.878Z,49.63
2019-03-19T06:17:20.307Z,46.23
2019-03-19T06:19:47.769Z,45.43
2019-03-19T06:22:15.255Z,41.83
2019-03-19T06:24:42.860Z,38.53
2019-03-19T06:27:11.886Z,41.87
2019-03-19T06:29:42.150Z,40.50
2019-03-19T06:32:09.672Z,45.67
2019-03-19T06:34:37.876Z,45.33
2019-03-19T06:37:05.340Z,45.20
2019-03-19T06:39:32.835Z,38.50
2019-03-19T06:42:00.246Z,36.67
2019-03-19T06:44:27.716Z,35.70
2019-03-19T06:46:56.803Z,33.63
2019-03-19T06:49:24.293Z,33.47
2019-03-19T06:51:51.761Z,34.93
2019-03-19T06:54:19.612Z,32.97
2019-03-19T06:56:47.026Z,42.27
2019-03-19T06:59:14.556Z,35.87
2019-03-19T07:01:41.943Z,29.97
2019-03-19T07:04:09.491Z,33.97
2019-03-19T07:06:36.951Z,30.17
2019-03-19T07:09:05.995Z,33.00
2019-03-19T07:11:33.438Z,34.23
2019-03-19T07:14:00.975Z,33.03
2019-03-19T07:16:28.427Z,38.63
2019-03-19T07:18:58.465Z,30.13
2019-03-19T07:21:25.961Z,29.50
2019-03-19T07:23:53.372Z,23.03
2019-03-19T07:26:20.777Z,23.53
2019-03-19T07:28:48.238Z,19.47
2019-03-19T07:31:15.703Z,26.00
2019-03-19T07:33:43.191Z,24.43
2019-03-19T07:36:11.301Z,23.43
2019-03-19T07:38:38.695Z,20.57
2019-03-19T07:41:06.157Z,22.63
2019-03-19T07:43:34.811Z,20.80
2019-03-19T07:46:02.209Z,22.50
2019-03-19T07:48:29.655Z,19.03
2019-03-19T07:50:57.021Z,17.77
2019-03-19T07:53:24.568Z,17.70
2019-03-19T07:55:53.475Z,15.47
2019-03-19T07:58:31.369Z,16.20
2019-03-19T08:00:50.462Z,20.50
2019-03-19T08:03:17.861Z,16.33
2019-03-19T08:05:45.945Z,19.77
2019-03-19T08:08:13.441Z,16.53
2019-03-19T08:10:40.867Z,14.70
2019-03-19T08:13:08.275Z,11.37
2019-03-19T08:15:35.763Z,12.57
2019-03-19T08:18:03.209Z,12.40
2019-03-19T08:20:30.585Z,12.80
2019-03-19T08:22:59.585Z,15.73
2019-03-19T08:25:26.975Z,9.57
2019-03-19T08:27:54.438Z,9.93
2019-03-19T08:30:24.853Z,14.97
2019-03-19T08:32:53.354Z,13.00
2019-03-19T08:35:20.724Z,12.83
2019-03-19T08:37:48.094Z,10.73
2019-03-19T08:40:17.151Z,13.20
2019-03-19T08:42:44.580Z,7.83
2019-03-19T08:45:22.379Z,9.00
2019-03-19T08:47:49.827Z,15.07
2019-03-19T08:50:17.718Z,16.80
2019-03-19T08:52:45.157Z,10.67
2019-03-19T08:55:12.580Z,11.23
2019-03-19T08:57:39.998Z,11.77
2019-03-19T09:00:11.250Z,11.43
2019-03-19T09:02:39.972Z,14.30
2019-03-19T09:05:09.089Z,11.47
2019-03-19T09:07:36.473Z,9.87
2019-03-19T09:10:05.560Z,9.67
2019-03-19T09:12:32.986Z,13.93
2019-03-19T09:15:00.429Z,12.03
2019-03-19T09:17:27.872Z,12.60
2019-03-19T09:19:55.436Z,9.03
2019-03-19T09:22:22.932Z,10.90
2019-03-19T09:24:50.325Z,9.87
2019-03-19T09:27:17.873Z,14.07
2019-03-19T09:29:45.316Z,14.80
2019-03-19T09:32:12.775Z,7.30
2019-03-19T09:34:40.132Z,11.70
2019-03-19T09:37:09.337Z,14.97
2019-03-19T09:39:37.950Z,11.50
2019-03-19T09:42:06.606Z,6.70
2019-03-19T09:44:34.073Z,6.80
2019-03-19T09:47:02.912Z,12.33
2019-03-19T09:49:30.302Z,9.60
2019-03-19T09:51:58.070Z,7.57
2019-03-19T09:54:26.584Z,7.53
2019-03-19T09:56:54.058Z,5.73
2019-03-19T09:59:27.608Z,3.87
2019-03-19T10:01:55.048Z,8.70
2019-03-19T10:04:22.438Z,7.23
2019-03-19T10:06:49.862Z,8.57
2019-03-19T10:09:17.335Z,7.13
2019-03-19T10:11:44.834Z,10.27
2019-03-19T10:14:12.281Z,7.07
2019-03-19T10:16:39.708Z,8.93
2019-03-19T10:19:07.098Z,5.20
2019-03-19T10:21:34.492Z,8.43
2019-03-19T10:24:02.006Z,12.17
2019-03-19T10:26:29.375Z,7.37
2019-03-19T10:28:57.274Z,4.27
2019-03-19T10:31:24.718Z,5.40
2019-03-19T10:33:52.204Z,6.97
2019-03-19T10:36:19.606Z,6.93
2019-03-19T10:38:47.004Z,6.50
2019-03-19T10:41:14.554Z,5.40
2019-03-19T10:43:41.906Z,5.73
2019-03-19T10:46:10.542Z,9.63
2019-03-19T10:48:37.958Z,6.87
2019-03-19T10:51:05.390Z,9.90
2019-03-19T10:53:32.808Z,6.00
2019-03-19T10:56:00.875Z,7.10
2019-03-19T10:58:30.753Z,5.67
2019-03-19T11:00:58.219Z,8.00
2019-03-19T11:03:27.206Z,11.67
2019-03-19T11:05:54.606Z,7.93
2019-03-19T11:08:22.024Z,8.07
2019-03-19T11:10:50.550Z,10.63
2019-03-19T11:13:18.010Z,9.70
2019-03-19T11:15:45.468Z,12.87
2019-03-19T11:18:12.862Z,8.63
2019-03-19T11:20:40.331Z,39.73
2019-03-19T11:23:07.803Z,28.10
2019-03-19T11:25:35.159Z,17.60
2019-03-19T11:28:02.668Z,13.73
2019-03-19T11:30:33.512Z,6.30
2019-03-19T11:33:00.964Z,7.00
2019-03-19T11:35:28.372Z,8.77
2019-03-19T11:37:56.364Z,6.40
2019-03-19T11:40:25.839Z,23.23
2019-03-19T11:42:52.924Z,12.53
2019-03-19T11:45:23.674Z,22.43
2019-03-19T11:47:51.050Z,14.17
2019-03-19T11:50:23.142Z,12.10
2019-03-19T11:52:50.549Z,8.50
2019-03-19T11:55:18.166Z,15.70
2019-03-19T11:57:45.593Z,10.93
2019-03-19T12:00:21.946Z,13.07
2019-03-19T12:02:49.364Z,12.33
2019-03-19T12:05:16.861Z,12.53
2019-03-19T12:07:45.490Z,15.13
2019-03-19T12:10:12.876Z,9.93
2019-03-19T12:12:41.937Z,11.93
2019-03-19T12:15:09.857Z,12.60
2019-03-19T12:17:37.319Z,11.70
2019-03-19T12:20:06.370Z,10.17
2019-03-19T12:22:34.320Z,18.43
2019-03-19T12:25:01.706Z,11.43
2019-03-19T12:27:29.178Z,11.90
2019-03-19T12:29:56.832Z,11.03
2019-03-19T12:32:26.791Z,13.17
2019-03-19T12:34:54.210Z,7.57
2019-03-19T12:37:21.643Z,16.70
2019-03-19T12:39:49.224Z,9.17
2019-03-19T12:42:16.670Z,14.00
2019-03-19T12:44:44.086Z,10.83
2019-03-19T12:47:11.745Z,10.73
2019-03-19T12:49:40.767Z,6.27
2019-03-19T12:52:08.149Z,8.57
2019-03-19T12:54:37.762Z,11.50
2019-03-19T12:57:04.802Z,16.43
2019-03-19T12:59:32.338Z,29.73
2019-03-19T13:01:59.900Z,13.90
2019-03-19T13:04:27.289Z,22.10
2019-03-19T13:06:54.784Z,15.50
2019-03-19T13:09:22.170Z,10.13
2019-03-19T13:11:49.681Z,9.53
2019-03-19T13:14:17.152Z,12.40
2019-03-19T13:16:44.566Z,11.87
2019-03-19T13:19:12.019Z,7.77
2019-03-19T13:21:39.514Z,6.97
2019-03-19T13:24:06.911Z,6.37
2019-03-19T13:26:34.395Z,8.07
2019-03-19T13:29:01.849Z,6.67
2019-03-19T13:31:29.284Z,7.17
2019-03-19T13:33:58.377Z,3.47
2019-03-19T13:36:25.775Z,6.63
2019-03-19T13:38:53.089Z,5.70
2019-03-19T13:41:22.184Z,12.47
2019-03-19T13:43:49.698Z,10.23
2019-03-19T13:46:17.117Z,12.33
2019-03-19T13:48:45.552Z,7.87
2019-03-19T13:51:13.053Z,10.50
2019-03-19T13:53:40.437Z,8.83
2019-03-19T13:56:07.841Z,12.63
2019-03-19T13:58:35.269Z,6.50
2019-03-19T14:01:02.672Z,7.10
2019-03-19T14:03:30.101Z,7.43
2019-03-19T14:05:59.072Z,7.60
2019-03-19T14:08:26.540Z,7.40
2019-03-19T14:10:54.388Z,5.63
2019-03-19T14:13:21.792Z,7.73
2019-03-19T14:15:49.213Z,9.70
2019-03-19T14:18:16.562Z,9.97
2019-03-19T14:20:43.959Z,7.27
2019-03-19T14:23:11.445Z,6.67
2019-03-19T14:25:38.773Z,10.87
2019-03-19T14:28:06.185Z,8.57
2019-03-19T14:30:33.751Z,15.17
2019-03-19T14:33:01.157Z,8.33
2019-03-19T14:35:36.971Z,5.17
2019-03-19T14:37:57.669Z,6.53
2019-03-19T14:40:25.525Z,9.97
2019-03-19T14:42:52.925Z,6.93
2019-03-19T14:45:20.495Z,18.93
2019-03-19T14:47:47.970Z,10.67
2019-03-19T14:50:15.989Z,18.13
2019-03-19T14:52:44.048Z,19.17
2019-03-19T14:55:11.757Z,11.07
2019-03-19T14:57:39.186Z,8.57
2019-03-19T15:00:17.178Z,12.13
2019-03-19T15:02:44.599Z,13.40
2019-03-19T15:05:12.576Z,8.47
2019-03-19T15:07:39.928Z,13.40
2019-03-19T15:10:08.911Z,10.13
2019-03-19T15:12:36.403Z,16.77
2019-03-19T15:15:05.091Z,5.53
2019-03-19T15:17:32.515Z,14.53
2019-03-19T15:20:00.000Z,13.53
2019-03-19T15:22:32.451Z,8.70
2019-03-19T15:24:59.227Z,8.63
2019-03-19T15:27:26.668Z,11.23
2019-03-19T15:29:54.129Z,10.03
2019-03-19T15:32:21.624Z,6.97
2019-03-19T15:34:51.246Z,13.03
2019-03-19T15:37:18.636Z,13.20
2019-03-19T15:39:52.125Z,11.40
2019-03-19T15:42:20.151Z,15.73
2019-03-19T15:44:47.541Z,19.90
2019-03-19T15:47:15.043Z,14.33
2019-03-19T15:49:42.498Z,30.67
2019-03-19T15:52:10.020Z,19.67
2019-03-19T15:54:39.812Z,10.83
2019-03-19T15:57:07.212Z,26.70
2019-03-19T15:59:35.835Z,18.77
2019-03-19T16:02:03.171Z,17.70
2019-03-19T16:04:30.627Z,15.03
2019-03-19T16:06:59.727Z,12.17
2019-03-19T16:09:27.259Z,11.23
2019-03-19T16:11:54.727Z,13.13
2019-03-19T16:14:22.274Z,14.47
2019-03-19T16:16:49.779Z,16.97
2019-03-19T16:19:17.380Z,15.93
2019-03-19T16:21:44.800Z,29.53
2019-03-19T16:24:12.251Z,27.20
2019-03-19T16:26:39.773Z,10.13
2019-03-19T16:29:07.863Z,19.53
2019-03-19T16:31:35.231Z,22.20
2019-03-19T16:34:08.445Z,18.10
2019-03-19T16:36:36.933Z,14.73
2019-03-19T16:39:05.860Z,15.07
2019-03-19T16:41:36.087Z,17.67
2019-03-19T16:44:03.472Z,50.60
2019-03-19T16:46:31.133Z,46.60
2019-03-19T16:48:58.649Z,28.17
2019-03-19T16:51:26.131Z,66.00
2019-03-19T16:53:53.500Z,62.00
2019-03-19T16:56:20.976Z,53.67
2019-03-19T16:58:48.986Z,64.50
2019-03-19T17:01:16.394Z,36.37
2019-03-19T17:03:43.955Z,38.40
2019-03-19T17:06:12.824Z,28.00
2019-03-19T17:08:40.295Z,33.67
2019-03-19T17:11:07.823Z,49.13
2019-03-19T17:13:35.294Z,41.37
2019-03-19T17:16:02.846Z,27.73
2019-03-19T17:18:30.426Z,26.43
2019-03-19T17:20:57.925Z,21.03
2019-03-19T17:23:25.439Z,16.57
2019-03-19T17:25:52.863Z,23.77
2019-03-19T17:28:22.663Z,17.70
2019-03-19T17:30:49.342Z,25.67
2019-03-19T17:33:16.789Z,23.07
2019-03-19T17:35:44.333Z,25.63
2019-03-19T17:38:11.837Z,27.30
2019-03-19T17:40:41.758Z,34.40
2019-03-19T17:43:09.331Z,38.30
2019-03-19T17:45:36.779Z,40.50
2019-03-19T17:48:04.175Z,47.10
2019-03-19T17:50:36.177Z,45.70
2019-03-19T17:53:03.626Z,43.50
2019-03-19T17:55:34.144Z,68.47
2019-03-19T17:58:01.578Z,67.13
2019-03-19T18:00:33.634Z,65.77
2019-03-19T18:03:01.231Z,71.00
2019-03-19T18:05:28.758Z,61.87
2019-03-19T18:07:58.510Z,69.50
2019-03-19T18:10:25.997Z,59.20
2019-03-19T18:12:53.441Z,58.23
2019-03-19T18:15:20.883Z,59.73
2019-03-19T18:17:48.303Z,69.27
2019-03-19T18:20:17.213Z,68.63
2019-03-19T18:22:44.637Z,78.60
2019-03-19T18:25:12.720Z,91.83
2019-03-19T18:27:40.241Z,75.30
2019-03-19T18:30:11.876Z,73.83
2019-03-19T18:32:39.432Z,88.23
2019-03-19T18:35:06.854Z,113.17
2019-03-19T18:37:34.373Z,96.10
2019-03-19T18:40:01.823Z,101.03
2019-03-19T18:42:33.029Z,128.50
2019-03-19T18:45:00.041Z,130.57
2019-03-19T18:47:27.634Z,131.90
2019-03-19T18:49:57.364Z,222.47
2019-03-19T18:52:24.849Z,274.33
2019-03-19T18:54:52.217Z,186.40
2019-03-19T18:57:19.650Z,127.20
2019-03-19T18:59:47.003Z,127.17
2019-03-19T19:02:14.430Z,105.97
2019-03-19T19:04:41.813Z,74.00
2019-03-19T19:07:10.820Z,89.20
2019-03-19T19:09:38.152Z,94.63
2019-03-19T19:12:05.708Z,81.57
2019-03-19T19:14:33.104Z,82.57
2019-03-19T19:17:00.547Z,72.80
2019-03-19T19:19:27.975Z,69.03
2019-03-19T19:21:55.374Z,105.53
2019-03-19T19:24:22.794Z,87.70
2019-03-19T19:26:50.289Z,119.27
2019-03-19T19:29:17.737Z,125.47
2019-03-19T19:31:45.256Z,120.77
2019-03-19T19:34:12.638Z,199.47
2019-03-19T19:36:40.009Z,262.13
2019-03-19T19:39:07.500Z,229.17
2019-03-19T19:41:35.069Z,183.80
2019-03-19T19:44:02.426Z,162.20
2019-03-19T19:46:29.873Z,152.87
2019-03-19T19:48:57.325Z,159.67
2019-03-19T19:51:24.740Z,197.33
2019-03-19T19:53:52.141Z,189.63
2019-03-19T19:56:19.504Z,191.23
2019-03-19T19:58:47.003Z,181.77
2019-03-19T20:01:14.346Z,188.83
2019-03-19T20:03:41.708Z,183.57
2019-03-19T20:06:09.130Z,179.07
2019-03-19T20:08:36.541Z,160.43
2019-03-19T20:11:03.927Z,157.63
2019-03-19T20:13:34.198Z,161.57
2019-03-19T20:16:01.519Z,175.03
2019-03-19T20:18:28.916Z,200.40
2019-03-19T20:21:02.445Z,271.47
2019-03-19T20:23:31.600Z,255.13
2019-03-19T20:25:59.033Z,273.50
2019-03-19T20:28:31.512Z,301.03
2019-03-19T20:31:02.871Z,288.10
2019-03-19T20:33:30.367Z,269.57
2019-03-19T20:35:57.698Z,235.13
2019-03-19T20:38:25.029Z,247.07
2019-03-19T20:40:52.501Z,228.77
2019-03-19T20:43:19.897Z,210.53
2019-03-19T20:45:48.970Z,193.07
2019-03-19T20:48:16.360Z,191.07
2019-03-19T20:50:43.754Z,178.23
2019-03-19T20:53:11.107Z,190.13
2019-03-19T20:55:40.384Z,202.70
2019-03-19T20:58:07.838Z,223.97
2019-03-19T21:00:35.404Z,231.23
2019-03-19T21:03:02.893Z,239.43
2019-03-19T21:05:30.481Z,261.97
2019-03-19T21:07:57.941Z,251.87
2019-03-19T21:10:25.528Z,258.00
2019-03-19T21:12:53.019Z,246.97
2019-03-19T21:15:22.027Z,246.43
2019-03-19T21:17:49.612Z,210.23
2019-03-19T21:20:17.046Z,208.13
2019-03-19T21:22:44.446Z,260.30
2019-03-19T21:25:12.015Z,242.50
2019-03-19T21:27:39.466Z,265.53
2019-03-19T21:30:08.558Z,306.90
2019-03-19T21:32:36.329Z,336.27
2019-03-19T21:35:05.788Z,351.87
2019-03-19T21:37:32.984Z,384.63
2019-03-19T21:40:00.516Z,381.93
2019-03-19T21:42:27.885Z,389.87
2019-03-19T21:44:56.859Z,390.43
2019-03-19T21:47:28.796Z,409.70
2019-03-19T21:49:58.826Z,363.07
2019-03-19T21:52:27.875Z,417.03
2019-03-19T21:54:55.446Z,453.97
2019-03-19T21:57:22.991Z,471.67
2019-03-19T21:59:50.522Z,502.70
2019-03-19T22:02:18.014Z,522.77
2019-03-19T22:04:45.570Z,528.30
2019-03-19T22:07:16.260Z,534.80
2019-03-19T22:09:43.701Z,492.87
2019-03-19T22:12:11.052Z,475.87
2019-03-19T22:14:38.407Z,446.80
2019-03-19T22:17:05.902Z,434.10
2019-03-19T22:19:33.222Z,377.17
2019-03-19T22:22:00.709Z,371.23
2019-03-19T22:24:28.108Z,382.33
2019-03-19T22:26:55.465Z,383.47
2019-03-19T22:29:22.897Z,367.37
2019-03-19T22:31:50.206Z,375.33
2019-03-19T22:34:17.560Z,362.03
2019-03-19T22:36:45.535Z,334.47
2019-03-19T22:39:12.946Z,368.00
2019-03-19T22:41:41.098Z,356.13
2019-03-19T22:44:08.408Z,357.10
2019-03-19T22:46:35.938Z,357.03
2019-03-19T22:49:03.370Z,342.70
2019-03-19T22:51:30.798Z,343.53
2019-03-19T22:53:58.211Z,340.83
2019-03-19T22:56:25.562Z,350.60
2019-03-19T22:58:52.957Z,375.47
2019-03-19T23:01:20.310Z,373.97
2019-03-19T23:03:51.607Z,382.23
2019-03-19T23:06:18.962Z,421.83
2019-03-19T23:08:46.302Z,432.87
2019-03-19T23:11:13.742Z,485.20
2019-03-19T23:13:41.171Z,486.27
2019-03-19T23:16:10.115Z,466.60
2019-03-19T23:18:37.557Z,436.03
2019-03-19T23:21:04.929Z,429.97
2019-03-19T23:23:32.428Z,469.63
2019-03-19T23:25:59.913Z,514.23
2019-03-19T23:28:27.259Z,512.43
2019-03-19T23:30:54.604Z,490.23
2019-03-19T23:33:22.063Z,469.80
2019-03-19T23:35:51.691Z,453.13
2019-03-19T23:38:19.062Z,424.00
2019-03-19T23:40:46.513Z,390.70
2019-03-19T23:43:13.961Z,402.07
2019-03-19T23:45:41.283Z,324.37
2019-03-19T23:48:08.668Z,353.30
2019-03-19T23:50:36.035Z,338.53
2019-03-19T23:53:03.546Z,368.70
2019-03-19T23:55:30.882Z,397.23
2019-03-19T23:57:58.363Z,397.20
